Alter Ego — V7BA8 — position and weather

sailwx.info

Track history (hours):
 
Tides and Currents Weather Stations Pressure Air Temp Water Temp Dewpoint Dewpoint Depression Visibility Wind Speed Wind Dir Waves Ship Positions

Alter Ego

Last reported at 2018-Feb-15 22:52 UTC. Time now 2018-Feb-18 05:02 UTC.
Position N 26°11' W 079°21'.

Length 333 m; draft 21.8 m.

Type: Tanker. MMSI: 538005105.

Date/timePositionNaut miles runAvg speedWind from/ knotsBaromVisibWave heightAir tempDewpointWater temp
2018-Feb-15 22:52N 26°11' W 079°21'711.8
2018-Feb-15 22:19N 26°05' W 079°24'2113.3
2018-Feb-15 20:42N 25°44' W 079°29'313.6
2018-Feb-15 20:30N 25°42' W 079°29'713.6
2018-Feb-15 20:00N 25°35' W 079°31'713.7
2018-Feb-15 19:30N 25°28' W 079°33'  
2018-Feb-08 01:30N 29°24' W 094°49'611.4
2018-Feb-08 01:00N 29°29' W 094°52'510.9
2018-Feb-08 00:30N 29°34' W 094°55'5 9.8
2018-Feb-08 00:00N 29°38' W 094°58'5 9.5
2018-Feb-07 23:30N 29°42' W 095°00'3 7.0
2018-Feb-07 23:01N 29°44' W 095°03'3 5.2
2018-Feb-07 22:30N 29°45' W 095°06'2 0.1
2018-Feb-06 23:41N 29°44' W 095°09'0 0.0
2018-Feb-06 23:26N 29°44' W 095°09'0 0.0
2018-Feb-06 22:53N 29°44' W 095°09'0 0.0
2018-Feb-06 22:29N 29°44' W 095°09'0 0.0
2018-Feb-06 21:56N 29°44' W 095°09'0 0.0
2018-Feb-06 21:23N 29°44' W 095°09'0 0.0
2018-Feb-06 20:56N 29°44' W 095°09'0 0.0
2018-Feb-06 20:29N 29°44' W 095°09'0 0.0
2018-Feb-06 19:59N 29°44' W 095°09'0 0.0
2018-Feb-06 19:29N 29°44' W 095°09'0 0.0
2018-Feb-06 18:23N 29°44' W 095°09'0 0.0
2018-Feb-06 17:59N 29°44' W 095°09'0 0.0
2018-Feb-06 17:29N 29°44' W 095°09'0 0.0
2018-Feb-06 16:59N 29°44' W 095°09'0 0.0
2018-Feb-06 16:23N 29°44' W 095°09'0 0.0
2018-Feb-06 15:59N 29°44' W 095°09'0 0.0
2018-Feb-06 15:26N 29°44' W 095°09'0 0.0
2018-Feb-06 14:59N 29°44' W 095°09'0 0.0
2018-Feb-06 14:29N 29°44' W 095°09'0 0.0
2018-Feb-06 13:59N 29°44' W 095°09'0 0.0
2018-Feb-05 23:47N 29°44' W 095°09'0 0.0
2018-Feb-05 23:29N 29°44' W 095°09'0 0.0
2018-Feb-05 22:53N 29°44' W 095°09'  
Track history (hours):
 
Tides and Currents Weather Stations Pressure Air Temp Water Temp Dewpoint Dewpoint Depression Visibility Wind Speed Wind Dir Waves Ship Positions

Alter Ego

Last reported at 2018-Feb-15 22:52 UTC. Time now 2018-Feb-18 05:02 UTC.
Position N 26°11' W 079°21'.

Length 333 m; draft 21.8 m.

Type: Tanker. MMSI: 538005105.

Date/timePositionNaut miles runAvg speedWind from/ knotsBaromVisibWave heightAir tempDewpointWater temp
2018-Feb-15 22:52N 26°11' W 079°21'711.8
2018-Feb-15 22:19N 26°05' W 079°24'2113.3
2018-Feb-15 20:42N 25°44' W 079°29'313.6
2018-Feb-15 20:30N 25°42' W 079°29'713.6
2018-Feb-15 20:00N 25°35' W 079°31'713.7
2018-Feb-15 19:30N 25°28' W 079°33'  
2018-Feb-08 01:30N 29°24' W 094°49'611.4
2018-Feb-08 01:00N 29°29' W 094°52'510.9
2018-Feb-08 00:30N 29°34' W 094°55'5 9.8
2018-Feb-08 00:00N 29°38' W 094°58'5 9.5
2018-Feb-07 23:30N 29°42' W 095°00'3 7.0
2018-Feb-07 23:01N 29°44' W 095°03'3 5.2
2018-Feb-07 22:30N 29°45' W 095°06'2 0.1
2018-Feb-06 23:41N 29°44' W 095°09'0 0.0
2018-Feb-06 23:26N 29°44' W 095°09'0 0.0
2018-Feb-06 22:53N 29°44' W 095°09'0 0.0
2018-Feb-06 22:29N 29°44' W 095°09'0 0.0
2018-Feb-06 21:56N 29°44' W 095°09'0 0.0
2018-Feb-06 21:23N 29°44' W 095°09'0 0.0
2018-Feb-06 20:56N 29°44' W 095°09'0 0.0
2018-Feb-06 20:29N 29°44' W 095°09'0 0.0
2018-Feb-06 19:59N 29°44' W 095°09'0 0.0
2018-Feb-06 19:29N 29°44' W 095°09'0 0.0
2018-Feb-06 18:23N 29°44' W 095°09'0 0.0
2018-Feb-06 17:59N 29°44' W 095°09'0 0.0
2018-Feb-06 17:29N 29°44' W 095°09'0 0.0
2018-Feb-06 16:59N 29°44' W 095°09'0 0.0
2018-Feb-06 16:23N 29°44' W 095°09'0 0.0
2018-Feb-06 15:59N 29°44' W 095°09'0 0.0
2018-Feb-06 15:26N 29°44' W 095°09'0 0.0
2018-Feb-06 14:59N 29°44' W 095°09'0 0.0
2018-Feb-06 14:29N 29°44' W 095°09'0 0.0
2018-Feb-06 13:59N 29°44' W 095°09'0 0.0
2018-Feb-05 23:47N 29°44' W 095°09'0 0.0
2018-Feb-05 23:29N 29°44' W 095°09'0 0.0
2018-Feb-05 22:53N 29°44' W 095°09'  

Dump ship's entire track history